Blanchardville, WI (53516)

5:00 AM CDT on May 26, 2015 (GMT -0500)
Johnson's Mountain | | Change Station
CLOSE
Current Station
Personal Weather Station
Location: Blanchardville, WI
Elevation: 1076 ft
Nearby Weather Stations

Elev 1076 ft 42.80 °N, 89.79 °W | Updated 5 minutes ago

Mostly Cloudy
Mostly Cloudy
65.2 °F
Feels Like 65.2 °F
N
0.0
Wind Variable Wind from SE
Gusts 1.0 mph

Today
High -- | Low -- °F
--% Chance of Precip.
Yesterday
High -- | Low -- °F
Precip. -- in
5:27 AM 8:26 PM
First Quarter, 57% visible
Pressure 29.87 in
Visibility 10.0 miles
Clouds Scattered Clouds 2800 ft
Mostly Cloudy 3700 ft
Mostly Cloudy 4700 ft
Dew Point 63 °F
Humidity 93%
Rainfall 0.00 in
Snow Depth Not available.
UV 0 out of 12
Pollen 3.00 out of 12
Air Quality Not available.
Flu Activity Sporadic
METAR KMRJ 260955Z AUTO 00000KT 10SM SCT028 BKN037 BKN047 17/16 A2987 RMK AO2 P0004

More Conditions Fewer Conditions

Pressure 29.87 in
Visibility 10.0 miles
Clouds Scattered Clouds 2800 ft
Mostly Cloudy 3700 ft
Mostly Cloudy 4700 ft
Dew Point 63 °F
Humidity 93%
Rainfall 0.00 in
Snow Depth Not available.
UV 0 out of 12
Pollen 3.00 out of 12
Air Quality Not available.
Flu Activity Sporadic
METAR KMRJ 260955Z AUTO 00000KT 10SM SCT028 BKN037 BKN047 17/16 A2987 RMK AO2 P0004

More Conditions Fewer Conditions

10-Day Weather Forecast

Almanac

Astronomy

May. 26, 2015 Rise Set
Actual Time
Civil Twilight
Nautical Twilight
Astronomical Twilight
Moon
Length of Visible Light
Length of Day
Tomorrow will be .
, % of the Moon is Illuminated

Today's Extremes

State Highs State Lows

Community

WunderPhotos

Upload Photos

1,824,305 photos uploaded!

WunderBlogs® & News

Nearby

Air Quality

  Air Quality AQ Index Pollutant
Not available.

Snow Depth

Station Depth Elevation

Earthquake Activity

City Distance Mag. Time & Date
Minimum magnitude displayed is 2.5.

Coastal Water Temperatures

Place Temperature

Stations

Nearby Weather Stations

Station Location Temp. Windchill Dew Point Humidity Wind Precip. Elev Updated Type